.
WxDataArchive / Data Records for 2008-11-11
2008-11-10 November 2008 2008-11-12

Data Records for Tuesday, 11 November 2008

Time	Temp	Chill	HIndex	Humid	Dewpt	 Wind 	HiWind	WindDir	Rain 	Barom 
-----	----	-----	------	-----	-----	------	------	-------	-----	----- 
00:00	21.8	21.8	21.8	88	18.8	0	0	---	0.00	30.299 
00:05	21.6	21.6	21.6	88	18.6	0	0	---	0.00	30.300 
00:10	21.6	21.6	21.6	88	18.6	0	0	---	0.00	30.300 
00:15	21.4	21.4	21.4	88	18.4	0	0	---	0.00	30.299 
00:20	21.4	21.4	21.4	88	18.4	0	0	---	0.00	30.299 
00:25	21.4	21.4	21.4	88	18.4	0	0	---	0.00	30.300 
00:30	21.4	21.4	21.4	88	18.4	0	0	---	0.00	30.301 
00:35	21.4	21.4	21.4	89	18.7	0	0	---	0.00	30.304 
00:40	21.3	21.3	21.3	89	18.6	0	0	---	0.00	30.305 
00:45	21.3	21.3	21.3	89	18.6	0	0	---	0.00	30.307 
00:50	21.3	21.3	21.3	89	18.6	0	0	---	0.00	30.307 
00:55	21.3	21.3	21.3	89	18.6	0	0	---	0.00	30.307 
01:00	21.1	21.1	21.1	89	18.4	0	0	---	0.00	30.307 
01:05	21.1	21.1	21.1	89	18.4	0	0	---	0.00	30.310 
01:10	21.1	21.1	21.1	89	18.4	0	0	---	0.00	30.307 
01:15	21.1	21.1	21.1	89	18.4	0	0	---	0.00	30.311 
01:20	21.1	21.1	21.1	89	18.4	0	0	---	0.00	30.308 
01:25	21.0	21.0	21.0	89	18.3	0	0	---	0.00	30.309 
01:30	21.0	21.0	21.0	89	18.3	0	0	---	0.00	30.312 
01:35	21.0	21.0	21.0	89	18.3	0	0	---	0.00	30.310 
01:40	20.8	20.8	20.8	89	18.1	0	0	---	0.00	30.313 
01:45	20.8	20.8	20.8	89	18.1	0	0	---	0.00	30.313 
01:50	20.6	20.6	20.6	89	17.9	0	0	---	0.00	30.310 
01:55	20.6	20.6	20.6	89	17.9	0	0	---	0.00	30.312 
02:00	20.6	20.6	20.6	89	17.9	0	0	---	0.00	30.314 
02:05	20.6	20.6	20.6	89	17.9	0	0	---	0.00	30.315 
02:10	20.6	20.6	20.6	89	17.9	0	0	---	0.00	30.317 
02:15	20.5	20.5	20.5	89	17.8	0	0	---	0.00	30.316 
02:20	20.5	20.5	20.5	89	17.8	0	0	---	0.00	30.316 
02:25	20.5	20.5	20.5	89	17.8	0	0	---	0.00	30.319 
02:30	20.5	20.5	20.5	89	17.8	0	0	---	0.00	30.323 
02:35	20.3	20.3	20.3	89	17.6	0	0	---	0.00	30.327 
02:40	20.3	20.3	20.3	89	17.6	0	0	---	0.00	30.323 
02:45	20.3	20.3	20.3	89	17.6	0	0	---	0.00	30.323 
02:50	20.2	20.2	20.2	90	17.7	0	0	---	0.00	30.324 
02:55	20.2	20.2	20.2	90	17.7	0	0	---	0.00	30.325 
03:00	20.2	20.2	20.2	90	17.7	0	0	---	0.00	30.325 
03:05	20.2	20.2	20.2	90	17.7	0	0	---	0.00	30.323 
03:10	20.0	20.0	20.0	90	17.5	0	0	---	0.00	30.324 
03:15	20.0	20.0	20.0	90	17.5	0	0	---	0.00	30.324 
03:20	20.0	20.0	20.0	90	17.5	0	0	---	0.00	30.322 
03:25	20.0	20.0	20.0	90	17.5	0	0	---	0.00	30.324 
03:30	20.0	20.0	20.0	90	17.5	0	0	---	0.00	30.327 
03:35	20.0	20.0	20.0	90	17.5	0	0	---	0.00	30.328 
03:40	19.9	19.9	19.9	90	17.5	0	0	---	0.00	30.326 
03:45	19.9	19.9	19.9	90	17.5	0	0	---	0.00	30.323 
03:50	19.7	19.7	19.7	90	17.3	0	0	---	0.00	30.318 
03:55	19.7	19.7	19.7	90	17.3	0	0	---	0.00	30.320 
04:00	19.7	19.7	19.7	90	17.3	0	0	---	0.00	30.319 
04:05	19.5	19.5	19.5	90	17.1	0	0	---	0.00	30.320 
04:10	19.5	19.5	19.5	90	17.1	0	0	---	0.00	30.318 
04:15	19.5	19.5	19.5	90	17.1	0	0	---	0.00	30.318 
04:20	19.5	19.5	19.5	90	17.1	0	0	---	0.00	30.322 
04:25	19.5	19.5	19.5	90	17.1	0	0	---	0.00	30.324 
04:30	19.7	19.7	19.7	90	17.3	0	0	---	0.00	30.330 
04:35	19.7	19.7	19.7	90	17.3	0	0	---	0.00	30.329 
04:40	19.7	19.7	19.7	90	17.3	0	0	---	0.00	30.326 
04:45	19.7	19.7	19.7	90	17.3	0	0	---	0.00	30.328 
04:50	19.7	19.7	19.7	90	17.3	0	0	---	0.00	30.330 
04:55	19.5	19.5	19.5	90	17.1	0	0	---	0.00	30.327 
05:00	19.7	19.7	19.7	90	17.3	0	0	---	0.00	30.316 
05:05	19.7	19.7	19.7	90	17.3	0	0	---	0.00	30.323 
05:10	19.9	19.9	19.9	91	17.7	0	0	---	0.00	30.322 
05:15	20.0	20.0	20.0	91	17.8	0	0	---	0.00	30.322 
05:20	20.0	20.0	20.0	91	17.8	0	0	---	0.00	30.334 
05:25	20.2	20.2	20.2	91	18.0	0	0	---	0.00	30.335 
05:30	20.2	20.2	20.2	91	18.0	0	0	---	0.00	30.339 
05:35	20.2	20.2	20.2	91	18.0	0	0	---	0.00	30.350 
05:40	20.2	20.2	20.2	90	17.7	0	0	---	0.00	30.349 
05:45	20.2	20.2	20.2	90	17.7	0	0	---	0.00	30.352 
05:50	20.0	20.0	20.0	90	17.5	0	0	---	0.00	30.349 
05:55	20.2	20.2	20.2	90	17.7	0	0	---	0.00	30.350 
06:00	20.2	20.2	20.2	91	18.0	0	0	---	0.00	30.347 
06:05	20.2	20.2	20.2	91	18.0	0	0	---	0.00	30.352 
06:10	20.2	20.2	20.2	91	18.0	0	0	---	0.00	30.352 
06:15	20.2	20.2	20.2	91	18.0	0	0	---	0.00	30.351 
06:20	20.2	20.2	20.2	91	18.0	0	0	---	0.00	30.347 
06:25	20.2	20.2	20.2	91	18.0	0	0	---	0.00	30.351 
06:30	20.3	20.3	20.3	91	18.1	0	0	---	0.00	30.353 
06:35	20.3	20.3	20.3	91	18.1	0	0	---	0.00	30.353 
06:40	20.3	20.3	20.3	91	18.1	0	0	---	0.00	30.354 
06:45	20.3	20.3	20.3	91	18.1	0	0	---	0.00	30.355 
06:50	20.3	20.3	20.3	91	18.1	0	0	---	0.00	30.362 
06:55	20.5	20.5	20.5	90	18.0	0	0	---	0.00	30.361 
07:00	20.5	20.5	20.5	90	18.0	0	0	---	0.00	30.360 
07:05	20.5	20.5	20.5	90	18.0	0	0	---	0.00	30.364 
07:10	20.5	20.5	20.5	90	18.0	0	0	---	0.00	30.366 
07:15	20.5	20.5	20.5	91	18.3	0	0	---	0.00	30.371 
07:20	20.6	20.6	20.6	91	18.4	0	0	---	0.00	30.373 
07:25	20.6	20.6	20.6	91	18.4	0	0	---	0.00	30.372 
07:30	20.8	20.8	20.8	91	18.6	0	0	---	0.00	30.371 
07:35	21.0	21.0	21.0	91	18.8	0	0	---	0.00	30.370 
07:40	21.0	21.0	21.0	91	18.8	0	0	---	0.00	30.368 
07:45	21.3	21.3	21.3	91	19.1	0	0	---	0.00	30.359 
07:50	21.4	21.4	21.4	91	19.2	0	0	---	0.00	30.362 
07:55	21.8	21.8	21.8	91	19.6	0	0	---	0.00	30.364 
08:00	21.9	21.9	21.9	91	19.7	0	0	---	0.00	30.366 
08:05	22.2	22.2	22.2	92	20.2	0	0	---	0.00	30.369 
08:10	22.5	22.5	22.5	92	20.5	0	0	---	0.00	30.371 
08:15	23.0	23.0	23.0	92	21.0	0	0	---	0.00	30.369 
08:20	23.6	23.6	23.6	92	21.6	0	0	---	0.00	30.367 
08:25	24.4	24.4	24.4	92	22.4	0	1	338	0.00	30.369 
08:30	24.8	24.8	24.8	92	22.8	0	1	338	0.00	30.368 
08:35	25.3	25.3	25.3	92	23.3	0	0	---	0.00	30.373 
08:40	25.6	25.6	25.6	92	23.6	0	1	338	0.00	30.374 
08:45	25.8	25.8	25.8	91	23.5	0	1	338	0.00	30.372 
08:50	26.1	26.1	26.1	91	23.8	0	1	292	0.00	30.375 
08:55	26.4	26.4	26.4	90	23.9	0	1	292	0.00	30.373 
09:00	26.7	26.7	26.7	90	24.2	0	1	292	0.00	30.377 
09:05	27.0	27.0	27.0	89	24.2	0	1	292	0.00	30.381 
09:10	27.5	27.5	27.5	88	24.4	0	1	292	0.00	30.379 
09:15	27.8	27.8	27.8	88	24.7	0	1	292	0.00	30.382 
09:20	28.1	28.1	28.1	87	24.7	0	3	0	0.00	30.382 
09:25	28.4	28.4	28.4	86	24.8	0	1	112	0.00	30.383 
09:30	28.7	28.7	28.7	84	24.5	0	1	112	0.00	30.382 
09:35	28.8	28.8	28.8	84	24.6	0	1	112	0.00	30.385 
09:40	29.0	29.0	29.0	83	24.5	0	1	112	0.00	30.388 
09:45	29.3	29.3	29.3	83	24.8	0	1	112	0.00	30.382 
09:50	29.4	29.4	29.4	82	24.6	0	2	112	0.00	30.379 
09:55	29.7	29.7	29.7	82	24.9	0	1	112	0.00	30.376 
10:00	29.8	29.8	29.8	81	24.7	0	1	112	0.00	30.377 
10:05	30.1	30.1	30.1	81	25.0	0	2	112	0.00	30.381 
10:10	30.4	30.4	30.4	81	25.3	0	2	112	0.00	30.382 
10:15	30.7	30.7	30.7	80	25.3	0	2	112	0.00	30.379 
10:20	30.9	30.9	30.9	80	25.5	0	2	112	0.00	30.378 
10:25	31.2	31.2	31.2	80	25.8	0	2	112	0.00	30.378 
10:30	31.5	31.5	31.5	79	25.8	0	2	112	0.00	30.377 
10:35	31.8	31.8	31.8	80	26.3	0	2	112	0.00	30.378 
10:40	32.2	32.2	32.2	79	26.4	1	2	112	0.00	30.377 
10:45	32.4	32.4	32.4	78	26.3	1	3	112	0.00	30.373 
10:50	32.7	32.7	32.7	78	26.6	1	4	112	0.00	30.373 
10:55	32.9	32.9	32.9	77	26.5	0	3	90	0.00	30.373 
11:00	33.1	33.1	33.1	77	26.7	0	2	90	0.00	30.371 
11:05	33.4	33.4	33.4	76	26.7	0	2	90	0.00	30.370 
11:10	33.7	33.7	33.7	76	27.0	0	1	90	0.00	30.363 
11:15	34.1	34.1	34.1	75	27.0	1	5	90	0.00	30.362 
11:20	34.3	34.3	34.3	73	26.6	1	4	90	0.00	30.361 
11:25	34.4	34.4	34.4	74	27.0	2	4	90	0.00	30.358 
11:30	34.4	34.4	34.4	73	26.7	1	4	90	0.00	30.350 
11:35	34.7	34.7	34.7	72	26.6	0	2	68	0.00	30.349 
11:40	35.0	35.0	35.0	72	26.9	1	2	135	0.00	30.351 
11:45	35.2	35.2	35.2	70	26.4	1	3	135	0.00	30.347 
11:50	35.6	35.6	35.6	70	26.8	1	3	135	0.00	30.345 
11:55	35.8	35.8	35.8	69	26.6	1	3	135	0.00	30.344 
12:00	36.0	36.0	36.0	69	26.8	1	4	112	0.00	30.343 
12:05	36.3	36.3	36.3	66	26.0	1	2	112	0.00	30.342 
12:10	36.5	36.5	36.5	65	25.9	1	4	90	0.00	30.339 
12:15	36.8	36.8	36.8	66	26.5	0	3	90	0.00	30.333 
12:20	36.9	36.9	36.9	63	25.5	1	3	112	0.00	30.330 
12:25	37.0	37.0	37.0	62	25.2	2	4	112	0.00	30.328 
12:30	37.2	37.2	37.2	63	25.8	1	4	90	0.00	30.325 
12:35	37.5	37.5	37.5	62	25.7	1	5	112	0.00	30.323 
12:40	37.6	37.6	37.6	61	25.4	1	3	112	0.00	30.321 
12:45	37.8	37.8	37.8	61	25.6	1	4	90	0.00	30.318 
12:50	37.9	37.9	37.9	60	25.3	1	2	90	0.00	30.320 
12:55	38.0	38.0	38.0	59	25.0	1	4	112	0.00	30.323 
13:00	38.0	38.0	38.0	59	25.0	2	5	112	0.00	30.309 
13:05	38.0	38.0	38.0	58	24.6	1	3	135	0.00	30.305 
13:10	38.3	38.3	38.3	59	25.2	1	3	90	0.00	30.296 
13:15	38.5	38.5	38.5	59	25.4	1	5	90	0.00	30.287 
13:20	38.5	38.5	38.5	58	25.0	2	5	90	0.00	30.282 
13:25	38.5	38.5	38.5	57	24.6	2	5	90	0.00	30.279 
13:30	38.5	38.5	38.5	58	25.0	1	5	90	0.00	30.282 
13:35	38.6	38.6	38.6	57	24.7	1	2	90	0.00	30.280 
13:40	38.8	38.8	38.8	57	24.9	1	3	90	0.00	30.279 
13:45	38.8	38.8	38.8	57	24.9	2	4	90	0.00	30.279 
13:50	38.8	38.8	38.8	57	24.9	1	4	112	0.00	30.278 
13:55	38.8	38.8	38.8	56	24.5	2	4	112	0.00	30.274 
14:00	38.9	38.9	38.9	57	25.0	2	4	112	0.00	30.272 
14:05	38.9	38.9	38.9	57	25.0	2	5	90	0.00	30.275 
14:10	38.9	38.9	38.9	56	24.6	1	5	112	0.00	30.276 
14:15	39.1	39.1	39.1	57	25.2	1	3	112	0.00	30.273 
14:20	39.2	39.2	39.2	56	24.8	1	4	112	0.00	30.268 
14:25	39.3	39.3	39.3	56	24.9	1	4	135	0.00	30.266 
14:30	39.3	39.3	39.3	56	24.9	2	4	90	0.00	30.269 
14:35	39.5	39.5	39.5	57	25.5	1	3	112	0.00	30.265 
14:40	39.6	39.6	39.6	56	25.2	1	3	90	0.00	30.274 
14:45	39.9	39.9	39.9	56	25.5	1	3	90	0.00	30.275 
14:50	40.1	40.1	40.1	56	25.7	2	4	90	0.00	30.270 
14:55	39.9	39.9	39.9	56	25.5	2	5	90	0.00	30.272 
15:00	39.9	39.9	39.9	55	25.1	1	4	112	0.00	30.286 
15:05	39.9	39.9	39.9	54	24.6	1	5	90	0.00	30.274 
15:10	39.9	39.9	39.9	56	25.5	0	2	90	0.00	30.272 
15:15	40.1	40.1	40.1	56	25.7	0	3	90	0.00	30.273 
15:20	40.2	40.2	40.2	54	24.9	1	2	90	0.00	30.279 
15:25	40.2	40.2	40.2	55	25.3	0	2	90	0.00	30.279 
15:30	40.2	40.2	40.2	55	25.3	0	2	90	0.00	30.278 
15:35	40.2	40.2	40.2	54	24.9	1	7	90	0.00	30.266 
15:40	40.1	40.1	40.1	54	24.8	1	4	90	0.00	30.264 
15:45	39.9	39.9	39.9	55	25.1	1	2	90	0.00	30.272 
15:50	39.9	39.9	39.9	55	25.1	1	3	90	0.00	30.270 
15:55	39.8	39.8	39.8	54	24.5	1	3	90	0.00	30.271 
16:00	39.8	39.8	39.8	54	24.5	1	2	90	0.00	30.278 
16:05	39.6	39.6	39.6	54	24.3	1	3	90	0.00	30.280 
16:10	39.6	39.6	39.6	54	24.3	1	2	90	0.00	30.275 
16:15	39.6	39.6	39.6	55	24.8	0	2	90	0.00	30.265 
16:20	39.8	39.8	39.8	56	25.4	0	2	90	0.00	30.266 
16:25	39.8	39.8	39.8	55	25.0	0	2	90	0.00	30.263 
16:30	39.8	39.8	39.8	56	25.4	0	2	90	0.00	30.262 
16:35	39.8	39.8	39.8	55	25.0	1	3	112	0.00	30.262 
16:40	39.8	39.8	39.8	56	25.4	1	3	112	0.00	30.260 
16:45	39.6	39.6	39.6	57	25.6	1	3	112	0.00	30.255 
16:50	39.6	39.6	39.6	58	26.1	1	2	112	0.00	30.251 
16:55	39.5	39.5	39.5	58	26.0	1	3	112	0.00	30.250 
17:00	39.3	39.3	39.3	60	26.6	1	4	68	0.00	30.248 
17:05	39.3	39.3	39.3	60	26.6	0	2	68	0.00	30.256 
17:10	39.3	39.3	39.3	60	26.6	1	3	68	0.00	30.263 
17:15	39.3	39.3	39.3	62	27.4	0	1	68	0.00	30.262 
17:20	39.2	39.2	39.2	61	26.9	0	1	68	0.00	30.262 
17:25	39.2	39.2	39.2	61	26.9	0	1	68	0.00	30.263 
17:30	39.2	39.2	39.2	63	27.7	0	1	68	0.00	30.252 
17:35	39.1	39.1	39.1	63	27.6	0	1	68	0.00	30.258 
17:40	39.1	39.1	39.1	63	27.6	0	2	68	0.00	30.260 
17:45	38.9	38.9	38.9	64	27.8	1	2	68	0.00	30.248 
17:50	38.9	38.9	38.9	64	27.8	0	2	68	0.00	30.249 
17:55	38.8	38.8	38.8	65	28.1	0	2	68	0.00	30.248 
18:00	38.8	38.8	38.8	65	28.1	0	2	68	0.01	30.250 
18:05	38.6	38.6	38.6	65	27.9	0	2	68	0.00	30.248 
18:10	38.6	38.6	38.6	64	27.5	1	3	68	0.00	30.248 
18:15	38.6	38.6	38.6	66	28.2	0	3	68	0.00	30.249 
18:20	38.5	38.5	38.5	66	28.1	0	2	68	0.00	30.253 
18:25	38.5	38.5	38.5	67	28.5	0	2	68	0.00	30.254 
18:30	38.3	38.3	38.3	69	29.0	0	1	68	0.00	30.260 
18:35	38.2	38.2	38.2	72	30.0	0	1	68	0.01	30.260 
18:40	37.9	37.9	37.9	74	30.4	0	2	68	0.00	30.257 
18:45	37.8	37.8	37.8	77	31.2	0	2	68	0.00	30.253 
18:50	37.5	37.5	37.5	78	31.3	0	2	68	0.00	30.258 
18:55	37.2	37.2	37.2	79	31.3	0	2	68	0.00	30.262 
19:00	37.0	37.0	37.0	78	30.8	0	2	68	0.00	30.266 
19:05	37.0	37.0	37.0	79	31.1	0	2	68	0.00	30.268 
19:10	36.9	36.9	36.9	79	31.0	0	2	68	0.00	30.266 
19:15	36.9	36.9	36.9	79	31.0	1	2	68	0.00	30.267 
19:20	36.9	36.9	36.9	79	31.0	1	3	68	0.01	30.267 
19:25	36.9	36.9	36.9	80	31.3	0	2	68	0.00	30.270 
19:30	36.9	36.9	36.9	81	31.6	0	2	68	0.00	30.267 
19:35	36.9	36.9	36.9	81	31.6	0	2	68	0.00	30.267 
19:40	36.8	36.8	36.8	81	31.5	1	3	68	0.00	30.266 
19:45	36.6	36.6	36.6	81	31.3	1	3	90	0.00	30.264 
19:50	36.6	36.6	36.6	81	31.3	0	2	90	0.00	30.265 
19:55	36.5	36.5	36.5	81	31.2	1	3	112	0.00	30.266 
20:00	36.5	36.5	36.5	81	31.2	1	2	112	0.01	30.264 
20:05	36.3	36.3	36.3	81	31.0	1	3	112	0.00	30.259 
20:10	36.3	36.3	36.3	81	31.0	1	3	90	0.00	30.258 
20:15	36.3	36.3	36.3	81	31.0	1	4	90	0.00	30.254 
20:20	36.3	36.3	36.3	81	31.0	1	4	90	0.00	30.251 
20:25	36.3	36.3	36.3	81	31.0	1	3	90	0.00	30.248 
20:30	36.3	36.3	36.3	82	31.3	0	3	90	0.00	30.250 
20:35	36.3	36.3	36.3	82	31.3	1	3	68	0.00	30.257 
20:40	36.3	36.3	36.3	82	31.3	0	3	68	0.00	30.257 
20:45	36.3	36.3	36.3	82	31.3	1	2	90	0.00	30.258 
20:50	36.3	36.3	36.3	82	31.3	1	3	90	0.00	30.259 
20:55	36.3	36.3	36.3	82	31.3	1	2	90	0.00	30.260 
21:00	36.3	36.3	36.3	81	31.0	1	4	112	0.00	30.260 
21:05	36.5	36.5	36.5	81	31.2	1	4	90	0.00	30.255 
21:10	36.5	36.5	36.5	81	31.2	2	5	68	0.00	30.254 
21:15	36.5	36.5	36.5	81	31.2	2	5	90	0.00	30.255 
21:20	36.5	36.5	36.5	81	31.2	2	4	90	0.00	30.254 
21:25	36.5	36.5	36.5	81	31.2	2	5	112	0.00	30.250 
21:30	36.5	36.5	36.5	81	31.2	2	5	90	0.00	30.251 
21:35	36.5	36.5	36.5	81	31.2	1	4	90	0.00	30.252 
21:40	36.5	36.5	36.5	81	31.2	1	4	90	0.00	30.248 
21:45	36.5	36.5	36.5	81	31.2	2	6	90	0.00	30.246 
21:50	36.5	36.5	36.5	81	31.2	2	4	90	0.00	30.242 
21:55	36.5	36.5	36.5	80	30.9	2	6	90	0.00	30.245 
22:00	36.6	36.6	36.6	80	31.0	2	5	112	0.00	30.246 
22:05	36.6	36.6	36.6	81	31.3	2	5	112	0.00	30.244 
22:10	36.6	36.6	36.6	81	31.3	1	3	90	0.00	30.241 
22:15	36.6	36.6	36.6	82	31.6	2	4	68	0.00	30.239 
22:20	36.5	36.5	36.5	82	31.5	2	4	90	0.00	30.237 
22:25	36.5	36.5	36.5	82	31.5	2	4	90	0.00	30.236 
22:30	36.5	36.5	36.5	82	31.5	1	4	68	0.00	30.236 
22:35	36.5	36.5	36.5	82	31.5	2	4	112	0.00	30.233 
22:40	36.5	36.5	36.5	82	31.5	2	5	112	0.00	30.230 
22:45	36.5	36.5	36.5	81	31.2	2	4	90	0.00	30.233 
22:50	36.6	36.6	36.6	81	31.3	2	5	112	0.00	30.236 
22:55	36.6	36.6	36.6	81	31.3	1	4	112	0.00	30.236 
23:00	36.6	36.6	36.6	82	31.6	2	5	112	0.00	30.228 
23:05	36.6	36.6	36.6	82	31.6	1	4	90	0.00	30.226 
23:10	36.6	36.6	36.6	82	31.6	1	5	90	0.00	30.224 
23:15	36.6	36.6	36.6	82	31.6	2	5	112	0.00	30.218 
23:20	36.8	36.8	36.8	82	31.8	2	5	90	0.00	30.214 
23:25	36.8	36.8	36.8	82	31.8	2	6	90	0.00	30.214 
23:30	36.8	36.8	36.8	82	31.8	2	5	112	0.00	30.209 
23:35	36.8	36.8	36.8	82	31.8	1	5	90	0.00	30.210 
23:40	36.9	36.9	36.9	82	31.9	2	5	90	0.00	30.207 
23:45	36.9	36.9	36.9	82	31.9	1	4	112	0.00	30.205 
23:50	36.9	36.9	36.9	82	31.9	2	6	112	0.00	30.202 
23:55	36.8	36.8	36.8	82	31.8	2	4	112	0.00	30.199 

CoCoRaHS
IN-AL-39
A2 Web Hosting
Creative Commons License
GoDaddy
Look for:

loaded 2017-12-12 15:01:56 • last modified 2010-11-18 10:43:29
Privacy PolicyDisclaimer
• wx.awcolley.com is powered by PmWiki v.2002016 •
• all content (unless otherwise noted) © 2017 A W Colley